sensor_id;sensor_type;location;lat;lon;timestamp;temperature;humidity
23289;DHT22;11813;50.834;4.280;2024-03-08T00:02:13;7.30;99.90
23289;DHT22;11813;50.834;4.280;2024-03-08T00:04:39;7.30;99.90
23289;DHT22;11813;50.834;4.280;2024-03-08T00:07:05;7.30;99.90
23289;DHT22;11813;50.834;4.280;2024-03-08T00:09:32;7.30;99.90
23289;DHT22;11813;50.834;4.280;2024-03-08T00:11:57;7.40;99.90
23289;DHT22;11813;50.834;4.280;2024-03-08T00:14:23;7.30;99.90
23289;DHT22;11813;50.834;4.280;2024-03-08T00:16:49;7.40;99.90
23289;DHT22;11813;50.834;4.280;2024-03-08T00:19:14;7.40;99.90
23289;DHT22;11813;50.834;4.280;2024-03-08T00:21:40;7.30;99.90
23289;DHT22;11813;50.834;4.280;2024-03-08T00:24:07;7.30;99.90
23289;DHT22;11813;50.834;4.280;2024-03-08T00:26:32;7.30;99.90
23289;DHT22;11813;50.834;4.280;2024-03-08T00:28:58;7.30;99.90
23289;DHT22;11813;50.834;4.280;2024-03-08T00:31:24;7.20;99.90
23289;DHT22;11813;50.834;4.280;2024-03-08T00:33:50;7.10;99.90
23289;DHT22;11813;50.834;4.280;2024-03-08T00:36:16;7.00;99.90
23289;DHT22;11813;50.834;4.280;2024-03-08T00:38:42;7.10;99.90
23289;DHT22;11813;50.834;4.280;2024-03-08T00:41:08;7.10;99.90
23289;DHT22;11813;50.834;4.280;2024-03-08T00:43:33;6.90;99.90
23289;DHT22;11813;50.834;4.280;2024-03-08T00:45:59;6.90;99.90
23289;DHT22;11813;50.834;4.280;2024-03-08T00:48:26;6.90;99.90
23289;DHT22;11813;50.834;4.280;2024-03-08T00:50:52;6.90;99.90
23289;DHT22;11813;50.834;4.280;2024-03-08T00:53:18;6.90;99.90
23289;DHT22;11813;50.834;4.280;2024-03-08T00:55:43;7.00;99.90
23289;DHT22;11813;50.834;4.280;2024-03-08T00:58:12;7.00;99.90
23289;DHT22;11813;50.834;4.280;2024-03-08T01:00:37;7.00;99.90
23289;DHT22;11813;50.834;4.280;2024-03-08T01:03:04;6.80;99.90
23289;DHT22;11813;50.834;4.280;2024-03-08T01:05:30;6.80;99.90
23289;DHT22;11813;50.834;4.280;2024-03-08T01:07:56;6.80;99.90
23289;DHT22;11813;50.834;4.280;2024-03-08T01:10:21;6.70;99.90
23289;DHT22;11813;50.834;4.280;2024-03-08T01:12:48;6.80;99.90
23289;DHT22;11813;50.834;4.280;2024-03-08T01:15:15;6.70;99.90
23289;DHT22;11813;50.834;4.280;2024-03-08T01:17:40;6.60;99.90
23289;DHT22;11813;50.834;4.280;2024-03-08T01:20:07;6.70;99.90
23289;DHT22;11813;50.834;4.280;2024-03-08T01:22:36;6.70;99.90
23289;DHT22;11813;50.834;4.280;2024-03-08T01:25:01;6.70;99.90
23289;DHT22;11813;50.834;4.280;2024-03-08T01:27:30;6.60;99.90
23289;DHT22;11813;50.834;4.280;2024-03-08T01:29:55;6.50;99.90
23289;DHT22;11813;50.834;4.280;2024-03-08T01:32:21;6.40;99.90
23289;DHT22;11813;50.834;4.280;2024-03-08T01:34:49;6.40;99.90
23289;DHT22;11813;50.834;4.280;2024-03-08T01:37:14;6.50;99.90
23289;DHT22;11813;50.834;4.280;2024-03-08T01:39:40;6.60;99.90
23289;DHT22;11813;50.834;4.280;2024-03-08T01:42:05;6.50;99.90
23289;DHT22;11813;50.834;4.280;2024-03-08T01:44:31;6.50;99.90
23289;DHT22;11813;50.834;4.280;2024-03-08T01:46:57;6.40;99.90
23289;DHT22;11813;50.834;4.280;2024-03-08T01:49:24;6.40;99.90
23289;DHT22;11813;50.834;4.280;2024-03-08T01:51:51;6.40;99.90
23289;DHT22;11813;50.834;4.280;2024-03-08T01:54:19;6.40;99.90
23289;DHT22;11813;50.834;4.280;2024-03-08T01:56:45;6.40;99.90
23289;DHT22;11813;50.834;4.280;2024-03-08T01:59:12;6.40;99.90
23289;DHT22;11813;50.834;4.280;2024-03-08T02:01:37;6.40;99.90
23289;DHT22;11813;50.834;4.280;2024-03-08T02:04:03;6.40;99.90
23289;DHT22;11813;50.834;4.280;2024-03-08T02:06:31;6.40;99.90
23289;DHT22;11813;50.834;4.280;2024-03-08T02:08:57;6.40;99.90
23289;DHT22;11813;50.834;4.280;2024-03-08T02:11:22;6.30;99.90
23289;DHT22;11813;50.834;4.280;2024-03-08T02:13:48;6.10;99.90
23289;DHT22;11813;50.834;4.280;2024-03-08T02:16:20;6.20;99.90
23289;DHT22;11813;50.834;4.280;2024-03-08T02:18:46;6.10;99.90
23289;DHT22;11813;50.834;4.280;2024-03-08T02:21:12;6.20;99.90
23289;DHT22;11813;50.834;4.280;2024-03-08T02:23:40;6.20;99.90
23289;DHT22;11813;50.834;4.280;2024-03-08T02:26:05;6.30;99.90
23289;DHT22;11813;50.834;4.280;2024-03-08T02:28:32;6.20;99.90
23289;DHT22;11813;50.834;4.280;2024-03-08T02:30:58;6.20;99.90
23289;DHT22;11813;50.834;4.280;2024-03-08T02:33:25;6.10;99.90
23289;DHT22;11813;50.834;4.280;2024-03-08T02:35:50;6.10;99.90
23289;DHT22;11813;50.834;4.280;2024-03-08T02:38:18;6.20;99.90
23289;DHT22;11813;50.834;4.280;2024-03-08T02:40:44;6.10;99.90
23289;DHT22;11813;50.834;4.280;2024-03-08T02:43:11;6.00;99.90
23289;DHT22;11813;50.834;4.280;2024-03-08T02:45:37;5.90;99.90
23289;DHT22;11813;50.834;4.280;2024-03-08T02:48:04;5.90;99.90
23289;DHT22;11813;50.834;4.280;2024-03-08T02:50:32;6.00;99.90
23289;DHT22;11813;50.834;4.280;2024-03-08T02:52:57;5.90;99.90
23289;DHT22;11813;50.834;4.280;2024-03-08T02:55:23;6.00;99.90
23289;DHT22;11813;50.834;4.280;2024-03-08T02:57:51;5.90;99.90
23289;DHT22;11813;50.834;4.280;2024-03-08T03:00:17;5.80;99.90
23289;DHT22;11813;50.834;4.280;2024-03-08T03:02:45;5.90;99.90
23289;DHT22;11813;50.834;4.280;2024-03-08T03:05:11;5.90;99.90
23289;DHT22;11813;50.834;4.280;2024-03-08T03:07:37;5.90;99.90
23289;DHT22;11813;50.834;4.280;2024-03-08T03:10:03;6.00;99.90
23289;DHT22;11813;50.834;4.280;2024-03-08T03:12:30;6.00;99.90
23289;DHT22;11813;50.834;4.280;2024-03-08T03:14:57;5.90;99.90
23289;DHT22;11813;50.834;4.280;2024-03-08T03:17:26;5.90;99.90
23289;DHT22;11813;50.834;4.280;2024-03-08T03:19:52;5.70;99.90
23289;DHT22;11813;50.834;4.280;2024-03-08T03:22:18;5.80;99.90
23289;DHT22;11813;50.834;4.280;2024-03-08T03:24:45;5.70;99.90
23289;DHT22;11813;50.834;4.280;2024-03-08T03:27:12;5.70;99.90
23289;DHT22;11813;50.834;4.280;2024-03-08T03:29:39;5.70;99.90
23289;DHT22;11813;50.834;4.280;2024-03-08T03:32:05;5.70;99.90
23289;DHT22;11813;50.834;4.280;2024-03-08T03:34:33;5.70;99.90
23289;DHT22;11813;50.834;4.280;2024-03-08T03:37:02;5.70;99.90
23289;DHT22;11813;50.834;4.280;2024-03-08T03:39:28;5.70;99.90
23289;DHT22;11813;50.834;4.280;2024-03-08T03:41:57;5.70;99.90
23289;DHT22;11813;50.834;4.280;2024-03-08T03:44:23;5.70;99.90
23289;DHT22;11813;50.834;4.280;2024-03-08T03:46:49;5.60;99.90
23289;DHT22;11813;50.834;4.280;2024-03-08T03:49:16;5.50;99.90
23289;DHT22;11813;50.834;4.280;2024-03-08T03:51:42;5.50;99.90
23289;DHT22;11813;50.834;4.280;2024-03-08T03:54:10;5.50;99.90
23289;DHT22;11813;50.834;4.280;2024-03-08T03:56:35;5.50;99.90
23289;DHT22;11813;50.834;4.280;2024-03-08T03:59:01;5.50;99.90
23289;DHT22;11813;50.834;4.280;2024-03-08T04:01:27;5.50;99.90
23289;DHT22;11813;50.834;4.280;2024-03-08T04:03:52;5.50;99.90
23289;DHT22;11813;50.834;4.280;2024-03-08T04:06:18;5.40;99.90
23289;DHT22;11813;50.834;4.280;2024-03-08T04:08:43;5.50;99.90
23289;DHT22;11813;50.834;4.280;2024-03-08T04:11:09;5.60;99.90
23289;DHT22;11813;50.834;4.280;2024-03-08T04:13:35;5.60;99.90
23289;DHT22;11813;50.834;4.280;2024-03-08T04:16:02;5.50;99.90
23289;DHT22;11813;50.834;4.280;2024-03-08T04:18:27;5.50;99.90
23289;DHT22;11813;50.834;4.280;2024-03-08T04:20:53;5.50;99.90
23289;DHT22;11813;50.834;4.280;2024-03-08T04:23:19;5.50;99.90
23289;DHT22;11813;50.834;4.280;2024-03-08T04:25:45;5.50;99.90
23289;DHT22;11813;50.834;4.280;2024-03-08T04:28:11;5.40;99.90
23289;DHT22;11813;50.834;4.280;2024-03-08T04:30:38;5.30;99.90
23289;DHT22;11813;50.834;4.280;2024-03-08T04:33:05;5.20;99.90
23289;DHT22;11813;50.834;4.280;2024-03-08T04:35:31;5.20;99.90
23289;DHT22;11813;50.834;4.280;2024-03-08T04:37:56;5.40;99.90
23289;DHT22;11813;50.834;4.280;2024-03-08T04:40:23;5.30;99.90
23289;DHT22;11813;50.834;4.280;2024-03-08T04:42:49;5.20;99.90
23289;DHT22;11813;50.834;4.280;2024-03-08T04:45:16;5.20;99.90
23289;DHT22;11813;50.834;4.280;2024-03-08T04:47:42;5.20;99.90
23289;DHT22;11813;50.834;4.280;2024-03-08T04:50:08;5.10;99.90
23289;DHT22;11813;50.834;4.280;2024-03-08T04:52:36;5.20;99.90
23289;DHT22;11813;50.834;4.280;2024-03-08T04:55:02;5.10;99.90
23289;DHT22;11813;50.834;4.280;2024-03-08T04:57:31;5.10;99.90
23289;DHT22;11813;50.834;4.280;2024-03-08T04:59:57;5.00;99.90
23289;DHT22;11813;50.834;4.280;2024-03-08T05:02:24;5.10;99.90
23289;DHT22;11813;50.834;4.280;2024-03-08T05:04:50;5.20;99.90
23289;DHT22;11813;50.834;4.280;2024-03-08T05:07:16;5.10;99.90
23289;DHT22;11813;50.834;4.280;2024-03-08T05:09:41;5.10;99.90
23289;DHT22;11813;50.834;4.280;2024-03-08T05:12:07;5.10;99.90
23289;DHT22;11813;50.834;4.280;2024-03-08T05:14:33;5.00;99.90
23289;DHT22;11813;50.834;4.280;2024-03-08T05:17:00;5.10;99.90
23289;DHT22;11813;50.834;4.280;2024-03-08T05:19:26;5.00;99.90
23289;DHT22;11813;50.834;4.280;2024-03-08T05:21:52;5.00;99.90
23289;DHT22;11813;50.834;4.280;2024-03-08T05:24:19;5.00;99.90
23289;DHT22;11813;50.834;4.280;2024-03-08T05:26:45;5.00;99.90
23289;DHT22;11813;50.834;4.280;2024-03-08T05:29:11;4.90;99.90
23289;DHT22;11813;50.834;4.280;2024-03-08T05:31:47;4.90;99.90
23289;DHT22;11813;50.834;4.280;2024-03-08T05:34:14;4.90;99.90
23289;DHT22;11813;50.834;4.280;2024-03-08T05:36:41;4.90;99.90
23289;DHT22;11813;50.834;4.280;2024-03-08T05:39:10;4.90;99.90
23289;DHT22;11813;50.834;4.280;2024-03-08T05:41:37;4.90;99.90
23289;DHT22;11813;50.834;4.280;2024-03-08T05:44:03;4.90;99.90
23289;DHT22;11813;50.834;4.280;2024-03-08T05:46:29;4.90;99.90
23289;DHT22;11813;50.834;4.280;2024-03-08T05:48:54;4.90;99.90
23289;DHT22;11813;50.834;4.280;2024-03-08T05:51:20;5.00;99.90
23289;DHT22;11813;50.834;4.280;2024-03-08T05:53:47;5.00;99.90
23289;DHT22;11813;50.834;4.280;2024-03-08T05:56:12;5.00;99.90
23289;DHT22;11813;50.834;4.280;2024-03-08T05:58:38;5.00;99.90
23289;DHT22;11813;50.834;4.280;2024-03-08T06:01:04;4.90;99.90
23289;DHT22;11813;50.834;4.280;2024-03-08T06:03:33;4.90;99.90
23289;DHT22;11813;50.834;4.280;2024-03-08T06:05:59;4.90;99.90
23289;DHT22;11813;50.834;4.280;2024-03-08T06:08:25;4.90;99.90
23289;DHT22;11813;50.834;4.280;2024-03-08T06:10:55;4.80;99.90
23289;DHT22;11813;50.834;4.280;2024-03-08T06:13:21;4.90;99.90
23289;DHT22;11813;50.834;4.280;2024-03-08T06:15:47;4.80;99.90
23289;DHT22;11813;50.834;4.280;2024-03-08T06:18:12;4.80;99.90
23289;DHT22;11813;50.834;4.280;2024-03-08T06:20:38;4.90;99.90
23289;DHT22;11813;50.834;4.280;2024-03-08T06:23:04;4.90;99.90
23289;DHT22;11813;50.834;4.280;2024-03-08T06:25:29;4.70;99.90
23289;DHT22;11813;50.834;4.280;2024-03-08T06:27:55;4.70;99.90
23289;DHT22;11813;50.834;4.280;2024-03-08T06:30:20;4.70;99.90
23289;DHT22;11813;50.834;4.280;2024-03-08T06:32:46;4.80;99.90
23289;DHT22;11813;50.834;4.280;2024-03-08T06:35:12;4.80;99.90
23289;DHT22;11813;50.834;4.280;2024-03-08T06:37:39;4.80;99.90
23289;DHT22;11813;50.834;4.280;2024-03-08T06:40:05;4.70;99.90
23289;DHT22;11813;50.834;4.280;2024-03-08T06:42:33;4.70;99.90
23289;DHT22;11813;50.834;4.280;2024-03-08T06:45:01;4.70;99.90
23289;DHT22;11813;50.834;4.280;2024-03-08T06:47:31;4.70;99.90
23289;DHT22;11813;50.834;4.280;2024-03-08T06:49:57;4.80;99.90
23289;DHT22;11813;50.834;4.280;2024-03-08T06:52:22;4.70;99.90
23289;DHT22;11813;50.834;4.280;2024-03-08T06:54:48;4.80;99.90
23289;DHT22;11813;50.834;4.280;2024-03-08T06:57:14;4.90;99.90
23289;DHT22;11813;50.834;4.280;2024-03-08T06:59:42;5.00;99.90
23289;DHT22;11813;50.834;4.280;2024-03-08T07:02:07;4.90;99.90
23289;DHT22;11813;50.834;4.280;2024-03-08T07:04:34;4.90;99.90
23289;DHT22;11813;50.834;4.280;2024-03-08T07:07:04;4.80;99.90
23289;DHT22;11813;50.834;4.280;2024-03-08T07:09:30;4.80;99.90
23289;DHT22;11813;50.834;4.280;2024-03-08T07:11:56;4.90;99.90
23289;DHT22;11813;50.834;4.280;2024-03-08T07:14:22;4.80;99.90
23289;DHT22;11813;50.834;4.280;2024-03-08T07:16:48;4.80;99.90
23289;DHT22;11813;50.834;4.280;2024-03-08T07:19:13;4.70;99.90
23289;DHT22;11813;50.834;4.280;2024-03-08T07:21:41;4.70;99.90
23289;DHT22;11813;50.834;4.280;2024-03-08T07:24:07;4.80;99.90
23289;DHT22;11813;50.834;4.280;2024-03-08T07:26:43;4.80;99.90
23289;DHT22;11813;50.834;4.280;2024-03-08T07:29:08;4.90;99.90
23289;DHT22;11813;50.834;4.280;2024-03-08T07:31:34;4.90;99.90
23289;DHT22;11813;50.834;4.280;2024-03-08T07:34:10;5.00;99.90
23289;DHT22;11813;50.834;4.280;2024-03-08T07:36:36;5.00;99.90
23289;DHT22;11813;50.834;4.280;2024-03-08T07:39:02;5.20;99.90
23289;DHT22;11813;50.834;4.280;2024-03-08T07:41:28;5.30;99.90
23289;DHT22;11813;50.834;4.280;2024-03-08T07:43:56;5.40;99.90
23289;DHT22;11813;50.834;4.280;2024-03-08T07:46:21;5.40;99.90
23289;DHT22;11813;50.834;4.280;2024-03-08T07:48:48;5.30;99.90
23289;DHT22;11813;50.834;4.280;2024-03-08T07:51:16;5.30;99.90
23289;DHT22;11813;50.834;4.280;2024-03-08T07:53:43;5.50;99.90
23289;DHT22;11813;50.834;4.280;2024-03-08T07:56:09;5.50;99.90
23289;DHT22;11813;50.834;4.280;2024-03-08T07:58:38;5.70;99.90
23289;DHT22;11813;50.834;4.280;2024-03-08T08:01:06;5.60;99.90
23289;DHT22;11813;50.834;4.280;2024-03-08T08:03:31;5.60;99.90
23289;DHT22;11813;50.834;4.280;2024-03-08T08:05:57;5.80;99.90
23289;DHT22;11813;50.834;4.280;2024-03-08T08:08:23;5.90;99.90
23289;DHT22;11813;50.834;4.280;2024-03-08T08:10:49;6.00;99.90
23289;DHT22;11813;50.834;4.280;2024-03-08T08:13:15;6.10;99.90
23289;DHT22;11813;50.834;4.280;2024-03-08T08:15:41;6.20;99.90
23289;DHT22;11813;50.834;4.280;2024-03-08T08:18:06;6.20;99.90
23289;DHT22;11813;50.834;4.280;2024-03-08T08:20:35;6.30;99.90
23289;DHT22;11813;50.834;4.280;2024-03-08T08:23:00;6.40;99.90
23289;DHT22;11813;50.834;4.280;2024-03-08T08:25:26;6.40;99.90
23289;DHT22;11813;50.834;4.280;2024-03-08T08:27:52;6.50;99.90
23289;DHT22;11813;50.834;4.280;2024-03-08T08:30:19;6.70;99.90
23289;DHT22;11813;50.834;4.280;2024-03-08T08:32:45;6.70;99.90
23289;DHT22;11813;50.834;4.280;2024-03-08T08:35:12;6.80;99.90
23289;DHT22;11813;50.834;4.280;2024-03-08T08:37:41;7.00;99.90
23289;DHT22;11813;50.834;4.280;2024-03-08T08:40:08;7.20;99.90
23289;DHT22;11813;50.834;4.280;2024-03-08T08:42:40;7.30;99.90
23289;DHT22;11813;50.834;4.280;2024-03-08T08:45:06;7.50;99.90
23289;DHT22;11813;50.834;4.280;2024-03-08T08:47:37;7.60;99.90
23289;DHT22;11813;50.834;4.280;2024-03-08T08:50:04;7.80;99.90
23289;DHT22;11813;50.834;4.280;2024-03-08T08:52:31;7.70;99.90
23289;DHT22;11813;50.834;4.280;2024-03-08T08:54:57;7.70;99.90
23289;DHT22;11813;50.834;4.280;2024-03-08T08:57:22;7.80;99.90
23289;DHT22;11813;50.834;4.280;2024-03-08T08:59:48;8.00;99.90
23289;DHT22;11813;50.834;4.280;2024-03-08T09:02:14;7.90;99.90
23289;DHT22;11813;50.834;4.280;2024-03-08T09:04:42;8.00;99.90
23289;DHT22;11813;50.834;4.280;2024-03-08T09:07:08;8.10;99.90
23289;DHT22;11813;50.834;4.280;2024-03-08T09:09:34;8.50;99.90
23289;DHT22;11813;50.834;4.280;2024-03-08T09:12:00;8.60;99.90
23289;DHT22;11813;50.834;4.280;2024-03-08T09:14:26;8.60;99.90
23289;DHT22;11813;50.834;4.280;2024-03-08T09:16:52;8.70;99.90
23289;DHT22;11813;50.834;4.280;2024-03-08T09:19:17;8.70;99.90
23289;DHT22;11813;50.834;4.280;2024-03-08T09:21:45;8.80;99.90
23289;DHT22;11813;50.834;4.280;2024-03-08T09:24:10;8.90;99.90
23289;DHT22;11813;50.834;4.280;2024-03-08T09:26:36;9.10;99.90
23289;DHT22;11813;50.834;4.280;2024-03-08T09:29:02;9.20;99.90
23289;DHT22;11813;50.834;4.280;2024-03-08T09:31:28;9.30;99.90
23289;DHT22;11813;50.834;4.280;2024-03-08T09:33:54;9.40;99.90
23289;DHT22;11813;50.834;4.280;2024-03-08T09:36:19;9.50;99.90
23289;DHT22;11813;50.834;4.280;2024-03-08T09:38:45;9.70;99.90
23289;DHT22;11813;50.834;4.280;2024-03-08T09:41:11;10.00;99.90
23289;DHT22;11813;50.834;4.280;2024-03-08T09:43:38;10.20;99.90
23289;DHT22;11813;50.834;4.280;2024-03-08T09:46:04;10.50;99.90
23289;DHT22;11813;50.834;4.280;2024-03-08T09:48:34;10.60;99.90
23289;DHT22;11813;50.834;4.280;2024-03-08T09:51:00;10.90;99.90
23289;DHT22;11813;50.834;4.280;2024-03-08T09:53:26;10.80;99.90
23289;DHT22;11813;50.834;4.280;2024-03-08T09:55:51;11.10;99.90
23289;DHT22;11813;50.834;4.280;2024-03-08T09:58:17;11.30;99.90
23289;DHT22;11813;50.834;4.280;2024-03-08T10:01:02;11.40;99.90
23289;DHT22;11813;50.834;4.280;2024-03-08T10:03:30;11.40;99.90
23289;DHT22;11813;50.834;4.280;2024-03-08T10:05:57;11.30;99.90
23289;DHT22;11813;50.834;4.280;2024-03-08T10:08:29;11.40;99.90
23289;DHT22;11813;50.834;4.280;2024-03-08T10:10:56;11.70;99.90
23289;DHT22;11813;50.834;4.280;2024-03-08T10:13:25;11.90;99.90
23289;DHT22;11813;50.834;4.280;2024-03-08T10:15:52;12.20;99.90
23289;DHT22;11813;50.834;4.280;2024-03-08T10:18:18;12.30;99.90
23289;DHT22;11813;50.834;4.280;2024-03-08T10:20:44;12.60;99.90
23289;DHT22;11813;50.834;4.280;2024-03-08T10:23:09;12.80;99.90
23289;DHT22;11813;50.834;4.280;2024-03-08T10:25:36;12.70;99.90
23289;DHT22;11813;50.834;4.280;2024-03-08T10:28:05;12.50;99.90
23289;DHT22;11813;50.834;4.280;2024-03-08T10:30:31;12.30;99.90
23289;DHT22;11813;50.834;4.280;2024-03-08T10:32:57;12.40;99.90
23289;DHT22;11813;50.834;4.280;2024-03-08T10:35:24;12.60;99.90
23289;DHT22;11813;50.834;4.280;2024-03-08T10:37:51;12.80;99.90
23289;DHT22;11813;50.834;4.280;2024-03-08T10:40:25;12.90;99.90
23289;DHT22;11813;50.834;4.280;2024-03-08T10:42:59;13.30;99.90
23289;DHT22;11813;50.834;4.280;2024-03-08T10:45:34;13.50;99.90
23289;DHT22;11813;50.834;4.280;2024-03-08T10:48:37;13.80;99.90
23289;DHT22;11813;50.834;4.280;2024-03-08T10:50:59;13.70;99.90
23289;DHT22;11813;50.834;4.280;2024-03-08T10:53:28;13.60;99.90
23289;DHT22;11813;50.834;4.280;2024-03-08T10:55:57;13.50;99.90
23289;DHT22;11813;50.834;4.280;2024-03-08T10:58:25;13.60;99.90
23289;DHT22;11813;50.834;4.280;2024-03-08T11:00:53;13.70;99.90
23289;DHT22;11813;50.834;4.280;2024-03-08T11:06:08;14.00;99.90
23289;DHT22;11813;50.834;4.280;2024-03-08T11:08:36;14.30;99.90
23289;DHT22;11813;50.834;4.280;2024-03-08T11:11:02;14.40;99.90
23289;DHT22;11813;50.834;4.280;2024-03-08T11:13:41;14.40;99.90
23289;DHT22;11813;50.834;4.280;2024-03-08T11:18:59;14.60;99.90
23289;DHT22;11813;50.834;4.280;2024-03-08T11:21:34;14.60;99.90
23289;DHT22;11813;50.834;4.280;2024-03-08T11:24:07;14.70;99.90
23289;DHT22;11813;50.834;4.280;2024-03-08T11:26:33;14.80;99.90
23289;DHT22;11813;50.834;4.280;2024-03-08T11:32:12;15.70;99.90
23289;DHT22;11813;50.834;4.280;2024-03-08T11:34:41;15.90;99.90
23289;DHT22;11813;50.834;4.280;2024-03-08T11:37:20;15.70;99.90
23289;DHT22;11813;50.834;4.280;2024-03-08T11:39:55;15.70;99.90
23289;DHT22;11813;50.834;4.280;2024-03-08T11:42:24;16.10;99.90
23289;DHT22;11813;50.834;4.280;2024-03-08T11:44:52;16.40;99.90
23289;DHT22;11813;50.834;4.280;2024-03-08T11:47:18;16.40;99.90
23289;DHT22;11813;50.834;4.280;2024-03-08T11:49:44;16.50;99.90
23289;DHT22;11813;50.834;4.280;2024-03-08T11:52:12;16.40;99.90
23289;DHT22;11813;50.834;4.280;2024-03-08T11:54:41;16.50;99.90
23289;DHT22;11813;50.834;4.280;2024-03-08T11:57:06;16.70;99.90
23289;DHT22;11813;50.834;4.280;2024-03-08T11:59:32;16.80;99.90
23289;DHT22;11813;50.834;4.280;2024-03-08T12:02:07;16.80;99.90
23289;DHT22;11813;50.834;4.280;2024-03-08T12:04:35;16.70;99.90
23289;DHT22;11813;50.834;4.280;2024-03-08T12:07:02;16.80;99.90
23289;DHT22;11813;50.834;4.280;2024-03-08T12:09:33;16.90;99.90
23289;DHT22;11813;50.834;4.280;2024-03-08T12:11:59;16.90;99.90
23289;DHT22;11813;50.834;4.280;2024-03-08T12:14:24;17.20;99.90
23289;DHT22;11813;50.834;4.280;2024-03-08T12:16:51;17.40;99.90
23289;DHT22;11813;50.834;4.280;2024-03-08T12:19:17;17.70;99.90
23289;DHT22;11813;50.834;4.280;2024-03-08T12:21:43;17.80;99.90
23289;DHT22;11813;50.834;4.280;2024-03-08T12:24:15;17.50;99.90
23289;DHT22;11813;50.834;4.280;2024-03-08T12:26:42;17.70;99.90
23289;DHT22;11813;50.834;4.280;2024-03-08T12:29:27;17.90;99.90
23289;DHT22;11813;50.834;4.280;2024-03-08T12:31:58;17.70;99.90
23289;DHT22;11813;50.834;4.280;2024-03-08T12:34:26;17.90;99.90
23289;DHT22;11813;50.834;4.280;2024-03-08T12:36:54;18.20;99.90
23289;DHT22;11813;50.834;4.280;2024-03-08T12:39:21;18.60;99.90
23289;DHT22;11813;50.834;4.280;2024-03-08T12:41:48;18.80;99.90
23289;DHT22;11813;50.834;4.280;2024-03-08T12:44:15;19.10;99.90
23289;DHT22;11813;50.834;4.280;2024-03-08T12:46:40;19.60;99.90
23289;DHT22;11813;50.834;4.280;2024-03-08T12:49:09;19.80;99.90
23289;DHT22;11813;50.834;4.280;2024-03-08T12:51:36;19.70;99.90
23289;DHT22;11813;50.834;4.280;2024-03-08T12:54:02;19.00;99.90
23289;DHT22;11813;50.834;4.280;2024-03-08T12:56:32;19.20;99.90
23289;DHT22;11813;50.834;4.280;2024-03-08T12:58:59;19.50;99.90
23289;DHT22;11813;50.834;4.280;2024-03-08T13:01:25;19.70;99.90
23289;DHT22;11813;50.834;4.280;2024-03-08T13:03:52;20.00;99.90
23289;DHT22;11813;50.834;4.280;2024-03-08T13:06:18;20.10;99.90
23289;DHT22;11813;50.834;4.280;2024-03-08T13:08:47;20.10;99.90
23289;DHT22;11813;50.834;4.280;2024-03-08T13:11:13;20.30;99.90
23289;DHT22;11813;50.834;4.280;2024-03-08T13:13:43;20.40;99.90
23289;DHT22;11813;50.834;4.280;2024-03-08T13:16:10;20.30;99.90
23289;DHT22;11813;50.834;4.280;2024-03-08T13:18:36;20.20;99.90
23289;DHT22;11813;50.834;4.280;2024-03-08T13:21:03;20.40;99.90
23289;DHT22;11813;50.834;4.280;2024-03-08T13:23:33;20.50;99.90
23289;DHT22;11813;50.834;4.280;2024-03-08T13:26:05;20.50;99.90
23289;DHT22;11813;50.834;4.280;2024-03-08T13:28:30;20.60;99.90
23289;DHT22;11813;50.834;4.280;2024-03-08T13:30:57;20.60;99.90
23289;DHT22;11813;50.834;4.280;2024-03-08T13:33:27;20.80;99.90
23289;DHT22;11813;50.834;4.280;2024-03-08T13:35:52;21.10;99.90
23289;DHT22;11813;50.834;4.280;2024-03-08T13:38:18;20.90;99.90
23289;DHT22;11813;50.834;4.280;2024-03-08T13:40:46;20.70;99.90
23289;DHT22;11813;50.834;4.280;2024-03-08T13:43:17;20.60;99.90
23289;DHT22;11813;50.834;4.280;2024-03-08T13:45:43;20.80;99.90
23289;DHT22;11813;50.834;4.280;2024-03-08T13:48:09;20.80;99.90
23289;DHT22;11813;50.834;4.280;2024-03-08T13:50:38;20.90;99.90
23289;DHT22;11813;50.834;4.280;2024-03-08T13:53:04;20.90;99.90
23289;DHT22;11813;50.834;4.280;2024-03-08T13:55:29;21.20;99.90
23289;DHT22;11813;50.834;4.280;2024-03-08T13:57:56;21.20;99.90
23289;DHT22;11813;50.834;4.280;2024-03-08T14:00:25;21.10;99.90
23289;DHT22;11813;50.834;4.280;2024-03-08T14:02:53;21.20;99.90
23289;DHT22;11813;50.834;4.280;2024-03-08T14:05:19;21.20;99.90
23289;DHT22;11813;50.834;4.280;2024-03-08T14:07:46;20.80;99.90
23289;DHT22;11813;50.834;4.280;2024-03-08T14:10:14;20.90;99.90
23289;DHT22;11813;50.834;4.280;2024-03-08T14:12:40;20.90;99.90
23289;DHT22;11813;50.834;4.280;2024-03-08T14:15:08;21.00;99.90
23289;DHT22;11813;50.834;4.280;2024-03-08T14:17:35;21.20;99.90
23289;DHT22;11813;50.834;4.280;2024-03-08T14:20:01;21.20;99.90
23289;DHT22;11813;50.834;4.280;2024-03-08T14:22:26;21.00;99.90
23289;DHT22;11813;50.834;4.280;2024-03-08T14:24:52;20.70;99.90
23289;DHT22;11813;50.834;4.280;2024-03-08T14:27:18;20.90;99.90
23289;DHT22;11813;50.834;4.280;2024-03-08T14:29:44;21.20;99.90
23289;DHT22;11813;50.834;4.280;2024-03-08T14:32:10;21.00;99.90
23289;DHT22;11813;50.834;4.280;2024-03-08T14:34:36;21.20;99.90
23289;DHT22;11813;50.834;4.280;2024-03-08T14:37:02;21.10;99.90
23289;DHT22;11813;50.834;4.280;2024-03-08T14:39:31;21.20;99.90
23289;DHT22;11813;50.834;4.280;2024-03-08T14:41:59;21.50;99.90
23289;DHT22;11813;50.834;4.280;2024-03-08T14:44:25;21.40;99.90
23289;DHT22;11813;50.834;4.280;2024-03-08T14:46:57;21.50;99.90
23289;DHT22;11813;50.834;4.280;2024-03-08T14:49:23;21.70;99.90
23289;DHT22;11813;50.834;4.280;2024-03-08T14:51:51;21.70;99.90
23289;DHT22;11813;50.834;4.280;2024-03-08T14:54:17;21.80;99.90
23289;DHT22;11813;50.834;4.280;2024-03-08T14:56:48;22.10;99.90
23289;DHT22;11813;50.834;4.280;2024-03-08T14:59:15;22.10;99.90
23289;DHT22;11813;50.834;4.280;2024-03-08T15:01:40;22.10;99.90
23289;DHT22;11813;50.834;4.280;2024-03-08T15:04:09;22.00;99.90
23289;DHT22;11813;50.834;4.280;2024-03-08T15:06:39;22.40;99.90
23289;DHT22;11813;50.834;4.280;2024-03-08T15:09:05;22.60;99.90
23289;DHT22;11813;50.834;4.280;2024-03-08T15:11:40;22.70;99.90
23289;DHT22;11813;50.834;4.280;2024-03-08T15:14:06;22.60;99.90
23289;DHT22;11813;50.834;4.280;2024-03-08T15:16:40;22.90;99.90
23289;DHT22;11813;50.834;4.280;2024-03-08T15:19:07;22.50;99.90
23289;DHT22;11813;50.834;4.280;2024-03-08T15:21:33;22.60;99.90
23289;DHT22;11813;50.834;4.280;2024-03-08T15:24:03;22.40;99.90
23289;DHT22;11813;50.834;4.280;2024-03-08T15:26:29;22.40;99.90
23289;DHT22;11813;50.834;4.280;2024-03-08T15:28:57;22.30;99.90
23289;DHT22;11813;50.834;4.280;2024-03-08T15:31:23;21.90;99.90
23289;DHT22;11813;50.834;4.280;2024-03-08T15:33:50;21.50;99.90
23289;DHT22;11813;50.834;4.280;2024-03-08T15:36:36;21.40;99.90
23289;DHT22;11813;50.834;4.280;2024-03-08T15:39:02;21.20;99.90
23289;DHT22;11813;50.834;4.280;2024-03-08T15:41:28;21.00;99.90
23289;DHT22;11813;50.834;4.280;2024-03-08T15:43:55;21.10;99.90
23289;DHT22;11813;50.834;4.280;2024-03-08T15:46:21;21.10;99.90
23289;DHT22;11813;50.834;4.280;2024-03-08T15:48:50;20.50;99.90